Scroll To Top

Nearby METAR Reports

KBAX - Bad Axe, Michigan, USA
Distance from station: ESE 22mi, 35km
Updated: Fri, 02-Dec-2022 5:35am EST
Overcast
Overcast
 Wind from S
Wind: S 15 mph , 24 km/h, Gust: 20 mph , 31 km/h
Temperature: 32°F , 0°C
Wind Chill: 22°F , -6°C
Dew Point: 21°F , -6°C
Humidity: 64%
Barometer: 30.15 inHg , 1021 hPa
Clouds: Overcast
Visibility: 10 miles , 16 km
Cloud details: Partly cloudy 8500 ft
Overcast 11000 ft
2022/12/02 10:35 KBAX 021035Z AUTO 18013G17KT 10SM SCT085 OVC110 00/M06 A3015 RMK AO2 T00001065
KFNT - Flint, Michigan, USA
Distance from station: SSW 68mi, 109km
Updated: Fri, 02-Dec-2022 5:53am EST
Overcast
Overcast
 Wind from S
Wind: S 14 mph , 22 km/h
Temperature: 36°F , 2°C
Wind Chill: 27°F , -3°C
Dew Point: 19°F , -7°C
Humidity: 52%
Barometer: 30.17 inHg , 1021.7 hPa
Clouds: Overcast
Visibility: 10 miles , 16 km
Cloud details: Overcast 10000 ft
2022/12/02 10:53 KFNT 021053Z 17012KT 10SM OVC100 02/M07 A3017 RMK AO2 SLP224 T00171072
 
KMBS - Saginaw, Michigan, USA
Distance from station: SW 44mi, 70km
Updated: Fri, 02-Dec-2022 5:53am EST
Mostly cloudy
Mostly cloudy
 Wind from S
Wind: S 13 mph , 20 km/h
Temperature: 34°F , 1°C
Wind Chill: 25°F , -4°C
Dew Point: 19°F , -7°C
Humidity: 56%
Barometer: 30.12 inHg , 1020 hPa
Clouds: Mostly cloudy
Visibility: 10 miles , 16 km
Cloud details: Mostly cloudy 9000 ft
2022/12/02 10:53 KMBS 021053Z 17011KT 10SM BKN090 01/M07 A3012 RMK AO2 SLP209 T00061067
KDTW - Detroit/Wayne, Michigan, USA
Distance from station: SSE 117mi, 188km
Updated: Fri, 02-Dec-2022 5:53am EST
Overcast
Overcast
 Wind from S
Wind: S 9 mph , 15 km/h
Temperature: 34°F , 1°C
Wind Chill: 27°F , -3°C
Dew Point: 21°F , -6°C
Humidity: 60%
Barometer: 30.24 inHg , 1024 hPa
Clouds: Overcast
Visibility: 10 miles , 16 km
Cloud details: Mostly cloudy 5500 ft
Overcast 8500 ft
2022/12/02 10:53 KDTW 021053Z 18008KT 10SM BKN055 OVC085 01/M06 A3024 RMK AO2 SLP249 T00111056 PNO $